Sunday, April 22, 2018, 5:47 PM EDT
Back to Local

KCON, Concord, Concord Municipal Airport

Location: Concord, NH, United States Lat: 43.195
Local Time: 5:47 PM EDT (21:47 GMT) Lon: -71.501
Time Zone: US/Eastern Elev: 344 ft

Show me the last for .
Show Coded

Time T Td Feel RH Dir Speed Gust Alt SLP Vis Weather Sky Remarks
2018-04-22 16:51 60 15 - 16 330° 12 - 30.30 30.30 10 CLR Wind Shift: 06 min
2018-04-22 16:26 60 15 - 16 300° 9 20 30.29 - 10 CLR Wind Shift: 06 min
2018-04-22 15:51 59 14 - 16 330° 9 - 30.30 30.31 10 CLR None
2018-04-22 14:51 60 15 - 16 - - - 30.32 30.32 10 CLR None
2018-04-22 13:51 59 15 - 17 - - - 30.32 30.33 10 CLR 6-hr Min Temp (2pm): 37.0°F
6-hr Max Temp (2pm): 59.0°F
2018-04-22 12:51 57 16 - 19 270° 10 - 30.33 30.33 10 CLR None
2018-04-22 11:51 55 16 - 21 330° 10 17 30.34 30.34 10 CLR None
2018-04-22 10:51 53 17 - 23 330° 13 18 30.35 30.36 10 CLR None
2018-04-22 09:51 50 18 43 27 320° 15 22 30.35 30.36 10 CLR None
2018-04-22 08:51 46 22 42 38 310° 7 - 30.36 30.36 10 CLR None
2018-04-22 07:51 37 26 - 64 - Calm - 30.36 30.36 10 CLR 6-hr Min Temp (8am): 25.0°F
6-hr Max Temp (8am): 37.0°F
2018-04-22 06:51 28 23 - 81 - Calm - 30.35 30.36 10 CLR None
2018-04-22 05:51 26 21 22 80 60° 3 - 30.33 30.34 10 CLR None
2018-04-22 04:51 26 21 - 80 - Calm - 30.32 30.33 10 CLR None
2018-04-22 03:51 26 21 - 80 - Calm - 30.32 30.33 10 CLR None
2018-04-22 02:51 29 22 - 74 - Calm - 30.31 30.32 10 CLR None
2018-04-22 01:51 29 22 24 74 80° 5 - 30.31 30.32 10 CLR 6-hr Min Temp (2am): 28.9°F
6-hr Max Temp (2am): 50.0°F
2018-04-22 00:51 33 22 - 63 - Calm - 30.31 30.32 10 CLR 24-hr Min Temp (1am): 28.9°F
24-hr Max Temp (1am): 57.9°F
2018-04-21 23:51 33 24 28 69 160° 6 - 30.30 30.31 10 CLR None
2018-04-21 22:51 39 20 - 45 - Calm - 30.30 30.30 10 CLR None
2018-04-21 21:51 44 19 42 36 340° 5 - 30.29 30.29 10 CLR None
2018-04-21 20:51 47 18 43 31 350° 8 - 30.27 30.28 10 CLR None
2018-04-21 19:51 50 17 47 26 340° 8 - 30.25 30.25 10 CLR 6-hr Min Temp (8pm): 50.0°F
6-hr Max Temp (8pm): 57.9°F
2018-04-21 18:51 53 17 - 23 320° 16 23 30.22 30.22 10 CLR None
2018-04-21 17:51 56 17 - 21 320° 17 24 30.20 30.21 10 CLR None

Support USWX by starting your Amazon purchase here.